Time;durP1;ratioP1;P1;durP2;ratioP2;P2;SDS_P1;SDS_P2;PMS_P1;PMS_P2;Temp;Humidity;BMP_temperature;BMP_pressure;BME280_temperature;BME280_humidity;BME280_pressure;Samples;Min_cycle;Max_cycle;Signal;HPM_P1;HPM_P2
2021/08/31 00:02:07;;;;;;;20.90;9.77;;;16.50;99.10;;;;;;5074878;28;20417;-77
2021/08/31 00:04:33;;;;;;;24.43;10.40;;;16.50;99.10;;;;;;5074536;28;20265;-77
2021/08/31 00:06:59;;;;;;;26.33;10.03;;;16.50;99.10;;;;;;5074178;28;20451;-77
2021/08/31 00:09:25;;;;;;;17.93;9.77;;;16.50;99.10;;;;;;5074266;28;20847;-77
2021/08/31 00:11:51;;;;;;;22.88;10.48;;;16.50;99.10;;;;;;5074537;28;20398;-77
2021/08/31 00:14:17;;;;;;;15.77;9.30;;;16.50;99.10;;;;;;5075369;28;20272;-78
2021/08/31 00:16:44;;;;;;;14.35;8.90;;;16.50;99.10;;;;;;5074833;28;20419;-77
2021/08/31 00:19:10;;;;;;;18.80;10.05;;;16.50;99.10;;;;;;5074457;28;20173;-78
2021/08/31 00:21:35;;;;;;;19.17;9.53;;;16.60;99.10;;;;;;5074835;28;20750;-78
2021/08/31 00:24:02;;;;;;;15.37;8.73;;;16.60;99.10;;;;;;5073876;28;20193;-77
2021/08/31 00:26:28;;;;;;;20.70;9.75;;;16.60;99.10;;;;;;5072658;28;20474;-78
2021/08/31 00:28:54;;;;;;;21.92;9.75;;;16.50;99.10;;;;;;5074345;28;20176;-77
2021/08/31 00:31:19;;;;;;;22.07;10.20;;;16.50;99.10;;;;;;5141310;22;20217;-80
2021/08/31 00:33:45;;;;;;;18.42;8.50;;;16.50;99.10;;;;;;5068086;28;20451;-81
2021/08/31 00:36:11;;;;;;;17.05;9.52;;;16.50;99.10;;;;;;5067703;28;20177;-80
2021/08/31 00:38:37;;;;;;;19.90;9.80;;;16.50;99.10;;;;;;5068152;28;20174;-80
2021/08/31 00:41:03;;;;;;;16.57;9.30;;;16.60;99.10;;;;;;5067175;28;20415;-80
2021/08/31 00:43:44;;;;;;;17.20;9.03;;;16.60;99.10;;;;;;5067693;28;20173;-80
2021/08/31 00:46:11;;;;;;;19.70;9.80;;;16.60;99.10;;;;;;5068018;28;20454;-80
2021/08/31 00:48:38;;;;;;;15.25;8.20;;;16.60;99.10;;;;;;5067390;28;20180;-80
2021/08/31 00:51:04;;;;;;;19.20;9.23;;;16.60;99.10;;;;;;5067320;28;20552;-80
2021/08/31 00:53:30;;;;;;;19.85;10.13;;;16.60;99.10;;;;;;5067424;28;20177;-80
2021/08/31 00:55:55;;;;;;;22.50;9.87;;;16.50;99.10;;;;;;5067641;28;20191;-80
2021/08/31 00:58:21;;;;;;;20.63;10.40;;;16.50;99.10;;;;;;5067539;28;20423;-80
2021/08/31 01:00:47;;;;;;;16.80;9.03;;;16.50;99.10;;;;;;5067808;28;20927;-80
2021/08/31 01:03:13;;;;;;;17.50;9.80;;;16.50;99.10;;;;;;5067796;28;20416;-79
2021/08/31 01:05:39;;;;;;;21.50;11.03;;;16.50;99.10;;;;;;5067599;28;21056;-80
2021/08/31 01:08:06;;;;;;;19.57;10.10;;;16.50;99.10;;;;;;5066926;28;20422;-80
2021/08/31 01:10:32;;;;;;;25.27;11.27;;;16.50;99.10;;;;;;5066936;28;20415;-80
2021/08/31 01:12:58;;;;;;;28.15;12.45;;;16.50;99.10;;;;;;5067785;28;20174;-80
2021/08/31 01:15:25;;;;;;;20.43;10.87;;;16.50;99.10;;;;;;5067270;28;20192;-80
2021/08/31 01:17:51;;;;;;;23.05;12.57;;;16.50;99.10;;;;;;5067521;28;20737;-80
2021/08/31 01:20:19;;;;;;;23.63;12.73;;;16.50;99.10;;;;;;5067423;28;20189;-81
2021/08/31 01:22:46;;;;;;;23.45;11.32;;;16.50;99.10;;;;;;5071407;28;20499;-80
2021/08/31 01:25:12;;;;;;;22.90;10.43;;;16.50;99.10;;;;;;5070105;28;20200;-80
2021/08/31 01:27:37;;;;;;;22.50;12.07;;;16.40;99.10;;;;;;5071306;28;20177;-80
2021/08/31 01:30:04;;;;;;;22.63;11.23;;;16.40;99.10;;;;;;5071003;28;20508;-80
2021/08/31 01:32:30;;;;;;;25.13;12.00;;;16.40;99.10;;;;;;5071082;28;20412;-80
2021/08/31 01:34:56;;;;;;;29.57;12.20;;;16.50;99.10;;;;;;5070837;28;20193;-80
2021/08/31 01:37:21;;;;;;;21.77;12.00;;;16.50;99.10;;;;;;5070679;28;20915;-81
2021/08/31 01:39:47;;;;;;;22.30;12.02;;;16.50;99.10;;;;;;5071124;28;20442;-81
2021/08/31 01:42:13;;;;;;;33.70;12.40;;;16.50;99.10;;;;;;5071102;28;20210;-80
2021/08/31 01:44:39;;;;;;;24.23;12.30;;;16.50;99.10;;;;;;5070645;28;20435;-80
2021/08/31 01:47:09;;;;;;;27.48;12.15;;;16.50;99.10;;;;;;5070779;28;20209;-80
2021/08/31 01:49:34;;;;;;;22.55;11.40;;;16.50;99.10;;;;;;5071943;28;20165;-80
2021/08/31 01:52:00;;;;;;;26.50;12.73;;;16.50;99.10;;;;;;5070438;28;20176;-80
2021/08/31 01:54:27;;;;;;;29.42;13.25;;;16.50;99.10;;;;;;5070461;28;20193;-80
2021/08/31 01:56:53;;;;;;;28.30;12.50;;;16.60;99.10;;;;;;5069839;28;20660;-80
2021/08/31 01:59:19;;;;;;;29.67;12.40;;;16.60;99.10;;;;;;5070333;28;20180;-81
2021/08/31 02:01:44;;;;;;;25.13;12.10;;;16.60;99.10;;;;;;5070532;28;20423;-80
2021/08/31 02:04:10;;;;;;;28.83;13.87;;;16.60;99.10;;;;;;5071347;28;20436;-80
2021/08/31 02:06:36;;;;;;;30.93;12.83;;;16.60;99.10;;;;;;5070343;28;20523;-80
2021/08/31 02:09:02;;;;;;;25.03;13.70;;;16.60;99.10;;;;;;5070900;28;20400;-80
2021/08/31 02:11:28;;;;;;;29.77;14.20;;;16.60;99.10;;;;;;5070014;28;20446;-80
2021/08/31 02:13:54;;;;;;;36.20;14.32;;;16.70;99.10;;;;;;5070827;28;20186;-80
2021/08/31 02:16:20;;;;;;;35.20;15.88;;;16.60;99.10;;;;;;5070209;28;20180;-80
2021/08/31 02:18:46;;;;;;;29.53;14.20;;;16.60;99.10;;;;;;5069528;28;20536;-80
2021/08/31 02:21:12;;;;;;;28.03;13.60;;;16.60;99.10;;;;;;5069736;28;20477;-80
2021/08/31 02:23:39;;;;;;;31.90;14.20;;;16.60;99.10;;;;;;5069699;28;20415;-80
2021/08/31 02:26:05;;;;;;;26.98;13.55;;;16.60;99.10;;;;;;5070349;28;20459;-80
2021/08/31 02:28:31;;;;;;;32.13;12.95;;;16.60;99.10;;;;;;5069830;28;20235;-81
2021/08/31 02:30:57;;;;;;;32.00;13.07;;;16.60;99.10;;;;;;5069727;28;20485;-80
2021/08/31 02:33:23;;;;;;;29.73;12.30;;;16.60;99.10;;;;;;5069192;28;20177;-80
2021/08/31 02:35:48;;;;;;;32.13;14.93;;;16.60;99.10;;;;;;5069434;28;20193;-80
2021/08/31 02:38:14;;;;;;;31.40;14.63;;;16.60;99.10;;;;;;5070485;28;20412;-81
2021/08/31 02:40:40;;;;;;;23.97;11.70;;;16.50;99.10;;;;;;5069838;28;20173;-80
2021/08/31 02:43:06;;;;;;;27.13;14.87;;;16.60;99.10;;;;;;5069845;28;20469;-80
2021/08/31 02:45:32;;;;;;;22.13;11.43;;;16.50;99.10;;;;;;5069355;28;20459;-80
2021/08/31 02:47:58;;;;;;;26.20;12.63;;;16.50;99.10;;;;;;5069454;28;20427;-80
2021/08/31 02:50:24;;;;;;;23.93;11.67;;;16.50;99.10;;;;;;5069241;28;20419;-80
2021/08/31 02:52:50;;;;;;;26.05;12.85;;;16.50;99.10;;;;;;5069375;28;20533;-80
2021/08/31 02:55:16;;;;;;;26.85;12.50;;;16.50;99.10;;;;;;5068984;28;20221;-80
2021/08/31 02:57:42;;;;;;;25.13;12.88;;;16.50;99.10;;;;;;5069595;28;20169;-80
2021/08/31 03:00:09;;;;;;;27.07;12.10;;;16.40;99.10;;;;;;5069342;28;20358;-80
2021/08/31 03:02:36;;;;;;;27.88;12.75;;;16.50;99.10;;;;;;5068648;28;20408;-80
2021/08/31 03:05:02;;;;;;;35.20;15.20;;;16.50;99.10;;;;;;5068834;28;20669;-80
2021/08/31 03:07:28;;;;;;;22.70;11.82;;;16.50;99.10;;;;;;5069096;28;20262;-80
2021/08/31 03:09:53;;;;;;;23.50;11.90;;;16.50;99.10;;;;;;5069836;28;20165;-80
2021/08/31 03:12:19;;;;;;;28.37;13.23;;;16.40;99.10;;;;;;5069929;28;20404;-80
2021/08/31 03:14:45;;;;;;;28.23;13.70;;;16.40;99.10;;;;;;5069027;28;20427;-80
2021/08/31 03:17:11;;;;;;;33.08;14.02;;;16.40;99.10;;;;;;5068869;28;20412;-80
2021/08/31 03:19:37;;;;;;;25.93;11.93;;;16.40;99.10;;;;;;5068082;28;20602;-80
2021/08/31 03:22:05;;;;;;;25.65;12.80;;;16.40;99.10;;;;;;5069214;28;20412;-80
2021/08/31 03:24:31;;;;;;;23.80;10.75;;;16.40;99.10;;;;;;5068342;28;20197;-80
2021/08/31 03:26:58;;;;;;;23.60;11.73;;;16.40;99.10;;;;;;5067949;28;20205;-80
2021/08/31 03:29:24;;;;;;;30.35;13.80;;;16.40;99.10;;;;;;5068194;28;20177;-80
2021/08/31 03:31:49;;;;;;;25.50;13.23;;;16.50;99.10;;;;;;5068279;28;20191;-80
2021/08/31 03:34:16;;;;;;;30.48;12.95;;;16.50;99.10;;;;;;5068552;28;20454;-81
2021/08/31 03:36:42;;;;;;;30.08;12.88;;;16.50;99.10;;;;;;5068669;28;20188;-80
2021/08/31 03:39:08;;;;;;;30.45;11.98;;;16.50;99.10;;;;;;5068409;28;20173;-80
2021/08/31 03:41:34;;;;;;;27.98;12.07;;;16.50;99.10;;;;;;5068044;28;20173;-80
2021/08/31 03:44:00;;;;;;;23.70;12.40;;;16.60;99.10;;;;;;5067424;28;20197;-81
2021/08/31 03:46:26;;;;;;;26.37;12.70;;;16.60;99.10;;;;;;5067396;28;21063;-80
2021/08/31 03:48:52;;;;;;;29.00;13.37;;;16.60;99.10;;;;;;5068078;28;20408;-80
2021/08/31 03:51:17;;;;;;;27.43;11.57;;;16.50;99.10;;;;;;5069431;28;20411;-79
2021/08/31 03:53:44;;;;;;;29.30;13.30;;;16.50;99.10;;;;;;5068542;28;20424;-80
2021/08/31 03:56:09;;;;;;;26.05;13.63;;;16.50;99.10;;;;;;5068667;28;20447;-79
2021/08/31 03:58:35;;;;;;;24.67;11.90;;;16.50;99.10;;;;;;5068556;28;20185;-79
2021/08/31 04:01:02;;;;;;;29.02;13.05;;;16.50;99.10;;;;;;5069223;28;20423;-80
2021/08/31 04:03:28;;;;;;;28.67;12.15;;;16.50;99.10;;;;;;5069727;28;20177;-79
2021/08/31 04:05:53;;;;;;;27.48;13.25;;;16.60;99.10;;;;;;5068688;28;20728;-79
2021/08/31 04:08:19;;;;;;;24.45;13.15;;;16.60;99.10;;;;;;5068182;28;20173;-80
2021/08/31 04:10:45;;;;;;;23.10;12.17;;;16.50;99.10;;;;;;5068935;28;20173;-80
2021/08/31 04:13:13;;;;;;;29.20;14.93;;;16.50;99.10;;;;;;5069302;28;20415;-80
2021/08/31 04:15:39;;;;;;;27.30;13.63;;;16.50;99.10;;;;;;5068565;28;20537;-79
2021/08/31 04:18:05;;;;;;;29.20;14.20;;;16.50;99.10;;;;;;5068730;28;20195;-80
2021/08/31 04:20:31;;;;;;;39.57;14.10;;;16.40;99.10;;;;;;5068406;28;20172;-79
2021/08/31 04:22:58;;;;;;;27.60;12.20;;;16.40;99.10;;;;;;5068086;28;20427;-79
2021/08/31 04:25:24;;;;;;;30.13;14.55;;;16.40;99.10;;;;;;5068382;28;20502;-82
2021/08/31 04:27:50;;;;;;;28.88;14.77;;;16.40;99.10;;;;;;5067971;28;20173;-81
2021/08/31 04:30:16;;;;;;;29.27;13.83;;;16.50;99.10;;;;;;5067640;28;20188;-81
2021/08/31 04:32:41;;;;;;;28.90;14.27;;;16.50;99.10;;;;;;5068366;28;20180;-82
2021/08/31 04:35:08;;;;;;;29.33;14.20;;;16.40;99.10;;;;;;5068425;28;20766;-81
2021/08/31 04:37:33;;;;;;;36.03;15.65;;;16.50;99.10;;;;;;5068539;28;20418;-81
2021/08/31 04:40:00;;;;;;;28.40;13.17;;;16.50;99.10;;;;;;5066857;28;20169;-81
2021/08/31 04:42:26;;;;;;;32.65;15.65;;;16.50;99.10;;;;;;5066023;28;20419;-82
2021/08/31 04:44:52;;;;;;;30.27;13.73;;;16.40;99.10;;;;;;5065286;28;20296;-82
2021/08/31 04:47:20;;;;;;;31.30;14.60;;;16.40;99.10;;;;;;5064965;28;20227;-79
2021/08/31 04:49:46;;;;;;;35.28;15.75;;;16.40;99.10;;;;;;5065644;28;20196;-79
2021/08/31 04:52:12;;;;;;;33.95;15.45;;;16.30;99.10;;;;;;5065689;28;20256;-80
2021/08/31 04:54:38;;;;;;;32.65;14.63;;;16.30;99.10;;;;;;5066384;28;20203;-79
2021/08/31 04:57:04;;;;;;;34.13;15.50;;;16.30;99.10;;;;;;5069734;28;20201;-79
2021/08/31 04:59:30;;;;;;;27.92;14.05;;;16.40;99.10;;;;;;5069639;28;20183;-80
2021/08/31 05:01:56;;;;;;;32.13;15.93;;;16.40;99.10;;;;;;5070745;28;20212;-80
2021/08/31 05:04:28;;;;;;;37.57;15.97;;;16.40;99.10;;;;;;5069623;28;20462;-79
2021/08/31 05:06:54;;;;;;;30.77;14.50;;;16.40;99.10;;;;;;5069810;28;20464;-79
2021/08/31 05:09:20;;;;;;;36.20;13.82;;;16.40;99.10;;;;;;5069384;28;20625;-79
2021/08/31 05:11:46;;;;;;;29.90;15.93;;;16.40;99.10;;;;;;5070618;28;20241;-81
2021/08/31 05:14:11;;;;;;;32.30;16.00;;;16.40;99.10;;;;;;5070222;28;20193;-78
2021/08/31 05:16:37;;;;;;;38.10;15.60;;;16.40;99.10;;;;;;5069856;28;20443;-80
2021/08/31 05:19:03;;;;;;;37.13;14.80;;;16.40;99.10;;;;;;5070085;28;20411;-79
2021/08/31 05:21:31;;;;;;;32.50;16.43;;;16.30;99.10;;;;;;5070899;28;20435;-79
2021/08/31 05:23:57;;;;;;;32.70;14.63;;;16.20;99.10;;;;;;5069777;28;20806;-80
2021/08/31 05:26:23;;;;;;;29.08;14.65;;;16.20;99.10;;;;;;5069267;28;20201;-79
2021/08/31 05:28:49;;;;;;;26.80;13.10;;;16.20;99.10;;;;;;5069618;28;20188;-79
2021/08/31 05:31:15;;;;;;;30.23;15.30;;;16.30;99.10;;;;;;5068999;28;20439;-80
2021/08/31 05:33:41;;;;;;;31.93;15.00;;;16.30;99.10;;;;;;5069595;28;20420;-79
2021/08/31 05:36:07;;;;;;;28.13;13.65;;;16.30;99.10;;;;;;5069153;28;20416;-80
2021/08/31 05:38:36;;;;;;;28.57;15.17;;;16.30;99.10;;;;;;5069240;28;20276;-79
2021/08/31 05:41:02;;;;;;;32.47;16.58;;;16.30;99.10;;;;;;5069728;28;20429;-80
2021/08/31 05:43:28;;;;;;;33.13;14.67;;;16.30;99.10;;;;;;5069463;28;20173;-79
2021/08/31 05:45:54;;;;;;;32.78;14.93;;;16.30;99.10;;;;;;5069167;28;20459;-79
2021/08/31 05:48:21;;;;;;;33.50;15.05;;;16.30;99.10;;;;;;5068210;28;20185;-80
2021/08/31 05:50:47;;;;;;;24.50;13.25;;;16.30;99.10;;;;;;5066960;28;20200;-80
2021/08/31 05:53:12;;;;;;;26.50;13.63;;;16.30;99.10;;;;;;5068253;28;20169;-80
2021/08/31 05:55:38;;;;;;;29.43;12.87;;;16.30;99.10;;;;;;5067481;28;20450;-79
2021/08/31 05:58:04;;;;;;;27.73;12.90;;;16.30;99.10;;;;;;5067910;28;20419;-80
2021/08/31 06:00:30;;;;;;;28.20;13.75;;;16.30;99.10;;;;;;5068547;28;20177;-80
2021/08/31 06:02:56;;;;;;;35.60;14.32;;;16.40;99.10;;;;;;5067741;28;20232;-80
2021/08/31 06:05:22;;;;;;;32.83;14.13;;;16.30;99.10;;;;;;5066776;28;20197;-79
2021/08/31 06:07:48;;;;;;;32.67;16.00;;;16.30;99.10;;;;;;5066546;28;20491;-79
2021/08/31 06:10:15;;;;;;;28.53;13.20;;;16.40;99.10;;;;;;5069188;28;20203;-79
2021/08/31 06:12:41;;;;;;;37.97;14.77;;;16.40;99.10;;;;;;5068440;28;20847;-79
2021/08/31 06:15:07;;;;;;;38.63;13.23;;;16.30;99.10;;;;;;5067918;28;20204;-79
2021/08/31 06:17:37;;;;;;;36.05;15.55;;;16.30;99.10;;;;;;5067985;28;20598;-79
2021/08/31 06:20:05;;;;;;;26.73;14.13;;;16.30;99.10;;;;;;5068211;28;20177;-80
2021/08/31 06:22:31;;;;;;;28.10;14.02;;;16.30;99.10;;;;;;5067865;28;20196;-80
2021/08/31 06:24:57;;;;;;;31.00;14.00;;;16.30;99.10;;;;;;5067874;28;20212;-79
2021/08/31 06:27:22;;;;;;;28.30;14.83;;;16.40;99.10;;;;;;5068131;28;20463;-80
2021/08/31 06:29:48;;;;;;;27.37;14.10;;;16.40;99.10;;;;;;5068734;28;20416;-80
2021/08/31 06:32:14;;;;;;;28.00;14.37;;;16.50;99.10;;;;;;5145393;22;21004;-78
2021/08/31 06:34:40;;;;;;;25.13;12.97;;;16.50;99.10;;;;;;5079349;28;20422;-78
2021/08/31 06:37:05;;;;;;;25.50;13.20;;;16.50;99.10;;;;;;5078919;28;20921;-78
2021/08/31 06:39:31;;;;;;;30.13;14.07;;;16.50;99.10;;;;;;5079018;28;20175;-77
2021/08/31 06:41:57;;;;;;;26.43;12.73;;;16.50;99.10;;;;;;5078750;28;20413;-78
2021/08/31 06:44:23;;;;;;;26.33;12.55;;;16.60;99.10;;;;;;5078466;28;20429;-78
2021/08/31 06:46:49;;;;;;;28.10;13.97;;;16.50;99.10;;;;;;5078903;28;20198;-78
2021/08/31 06:49:15;;;;;;;22.43;12.20;;;16.60;99.10;;;;;;5079092;28;20512;-78
2021/08/31 06:51:41;;;;;;;24.70;11.30;;;16.60;99.10;;;;;;5079097;28;20519;-78
2021/08/31 06:54:07;;;;;;;26.70;11.40;;;16.70;99.10;;;;;;5078805;28;20483;-78
2021/08/31 06:56:33;;;;;;;17.63;9.63;;;16.70;99.10;;;;;;5078492;28;20168;-77
2021/08/31 06:58:58;;;;;;;23.60;11.43;;;16.80;99.10;;;;;;5078227;28;20406;-78
2021/08/31 07:01:24;;;;;;;18.67;11.40;;;16.70;99.10;;;;;;5078446;28;20175;-77
2021/08/31 07:03:50;;;;;;;21.43;10.40;;;16.70;99.10;;;;;;5078942;28;20168;-78
2021/08/31 07:06:16;;;;;;;24.27;11.33;;;16.70;99.10;;;;;;5079471;28;20192;-77
2021/08/31 07:08:41;;;;;;;22.47;10.57;;;16.70;99.10;;;;;;5096771;28;20160;-78
2021/08/31 07:11:07;;;;;;;23.73;12.20;;;16.70;99.10;;;;;;5078673;28;20417;-78
2021/08/31 07:13:33;;;;;;;19.20;9.83;;;16.70;99.10;;;;;;5078550;28;20164;-78
2021/08/31 07:15:59;;;;;;;21.10;11.07;;;16.70;99.10;;;;;;5078908;28;20203;-78
2021/08/31 07:18:24;;;;;;;20.23;9.90;;;16.70;99.10;;;;;;5077504;28;20532;-78
2021/08/31 07:20:50;;;;;;;19.47;9.80;;;16.80;99.10;;;;;;5078388;28;20172;-78
2021/08/31 07:23:16;;;;;;;17.60;9.80;;;16.80;99.10;;;;;;5078439;28;20312;-78
2021/08/31 07:25:43;;;;;;;15.10;7.80;;;16.90;99.10;;;;;;5078922;28;20455;-78
2021/08/31 07:28:12;;;;;;;17.88;10.40;;;16.90;98.80;;;;;;5078679;28;20167;-78
2021/08/31 07:30:38;;;;;;;16.45;8.07;;;16.90;99.10;;;;;;5078524;28;20175;-78
2021/08/31 07:33:06;;;;;;;17.13;9.68;;;17.00;98.60;;;;;;5078499;28;20172;-78
2021/08/31 07:35:33;;;;;;;15.68;9.20;;;17.00;98.80;;;;;;5078161;28;20567;-78
2021/08/31 07:37:59;;;;;;;18.45;10.18;;;17.10;99.10;;;;;;5078227;28;20180;-78
2021/08/31 07:40:25;;;;;;;15.68;8.93;;;17.30;99.10;;;;;;5077880;28;20176;-78
2021/08/31 07:42:52;;;;;;;17.40;9.43;;;17.30;98.10;;;;;;5077813;28;20221;-78
2021/08/31 07:45:18;;;;;;;16.17;9.48;;;17.30;98.70;;;;;;5077879;28;20671;-78
2021/08/31 07:47:44;;;;;;;19.85;9.75;;;17.40;98.70;;;;;;5077910;28;20167;-78
2021/08/31 07:50:10;;;;;;;20.70;9.07;;;17.30;97.40;;;;;;5077735;28;20175;-78
2021/08/31 07:52:36;;;;;;;22.52;9.05;;;17.30;97.90;;;;;;5077509;28;20446;-78
2021/08/31 07:55:07;;;;;;;14.73;8.52;;;17.30;97.10;;;;;;5077936;28;20188;-77
2021/08/31 07:57:34;;;;;;;18.25;9.18;;;17.30;97.30;;;;;;5077910;28;20326;-78
2021/08/31 08:00:00;;;;;;;23.05;10.38;;;17.40;98.10;;;;;;5078005;28;20171;-78
2021/08/31 08:02:26;;;;;;;16.80;9.50;;;17.50;97.70;;;;;;5077806;28;20176;-78
2021/08/31 08:04:58;;;;;;;16.17;9.40;;;17.50;97.30;;;;;;5077757;28;21079;-78
2021/08/31 08:07:25;;;;;;;17.67;8.65;;;17.50;97.60;;;;;;5077786;28;20195;-78
2021/08/31 08:09:51;;;;;;;27.15;10.30;;;17.60;96.00;;;;;;5077808;28;20582;-77
2021/08/31 08:12:17;;;;;;;13.90;8.53;;;17.60;96.30;;;;;;5077744;28;20164;-78
2021/08/31 08:14:42;;;;;;;18.57;9.33;;;17.60;96.50;;;;;;5077537;28;20192;-78
2021/08/31 08:17:08;;;;;;;17.53;9.40;;;17.60;96.40;;;;;;5077218;28;20182;-78
2021/08/31 08:19:34;;;;;;;22.10;10.17;;;17.60;97.30;;;;;;5077366;28;20414;-78
2021/08/31 08:22:00;;;;;;;18.10;8.77;;;17.70;95.90;;;;;;5077121;28;20239;-78
2021/08/31 08:24:25;;;;;;;15.20;9.00;;;17.70;95.80;;;;;;5077106;28;20196;-78
2021/08/31 08:26:52;;;;;;;18.33;8.97;;;17.70;95.70;;;;;;5077058;28;20446;-78
2021/08/31 08:29:19;;;;;;;15.57;8.10;;;17.70;95.90;;;;;;5076888;28;20753;-78
2021/08/31 08:31:47;;;;;;;15.43;8.55;;;17.70;95.90;;;;;;5077462;28;20643;-78
2021/08/31 08:34:13;;;;;;;15.02;8.43;;;17.70;95.00;;;;;;5077805;28;20220;-78
2021/08/31 08:36:39;;;;;;;14.32;8.70;;;17.70;95.30;;;;;;5077317;28;20199;-78
2021/08/31 08:39:04;;;;;;;20.77;9.20;;;17.80;95.80;;;;;;5077291;28;20176;-78
2021/08/31 08:41:30;;;;;;;18.53;9.03;;;17.90;95.80;;;;;;5077212;28;20492;-78
2021/08/31 08:43:59;;;;;;;17.83;9.73;;;18.00;94.80;;;;;;5077194;28;20191;-78
2021/08/31 08:46:26;;;;;;;19.40;9.30;;;18.00;93.80;;;;;;5077645;28;20456;-78
2021/08/31 08:48:52;;;;;;;15.98;8.13;;;18.00;94.70;;;;;;5077087;28;20167;-78
2021/08/31 08:51:21;;;;;;;17.83;8.70;;;18.00;94.40;;;;;;5077778;28;20172;-78
2021/08/31 08:53:46;;;;;;;12.20;7.20;;;18.10;93.60;;;;;;5077602;28;20406;-78
2021/08/31 08:56:12;;;;;;;13.63;7.70;;;18.10;93.90;;;;;;5077480;28;20179;-78
2021/08/31 08:58:38;;;;;;;16.13;8.60;;;18.20;95.10;;;;;;5077495;28;20262;-78
2021/08/31 09:01:07;;;;;;;13.57;7.43;;;18.20;94.40;;;;;;5076874;28;20494;-78
2021/08/31 09:03:38;;;;;;;17.45;9.00;;;18.20;94.30;;;;;;5077129;28;20494;-78
2021/08/31 09:06:15;;;;;;;23.00;7.90;;;18.20;92.70;;;;;;5077193;28;20659;-78
2021/08/31 09:08:53;;;;;;;14.55;7.95;;;18.20;93.60;;;;;;5077428;28;20172;-78
2021/08/31 09:11:28;;;;;;;16.20;8.73;;;18.10;93.90;;;;;;5078363;28;20249;-78
2021/08/31 09:14:18;;;;;;;12.88;8.10;;;18.20;93.90;;;;;;5077667;28;20195;-78
2021/08/31 09:16:46;;;;;;;16.20;7.78;;;18.40;92.90;;;;;;5076989;28;20175;-78
2021/08/31 09:19:12;;;;;;;19.45;7.95;;;18.50;92.90;;;;;;5077608;28;20171;-78
2021/08/31 09:21:38;;;;;;;13.25;7.43;;;18.60;93.30;;;;;;5077536;28;20172;-78
2021/08/31 09:24:04;;;;;;;17.23;8.15;;;18.80;93.10;;;;;;5077249;28;20191;-78
2021/08/31 09:26:38;;;;;;;15.20;7.20;;;19.00;91.20;;;;;;5078084;28;20659;-78
2021/08/31 09:29:17;;;;;;;13.18;7.88;;;19.00;90.50;;;;;;5077209;28;20493;-78
2021/08/31 09:31:57;;;;;;;15.27;7.30;;;19.10;91.50;;;;;;5078221;28;20233;-78
2021/08/31 09:34:34;;;;;;;14.15;8.10;;;19.20;91.30;;;;;;5077551;28;20675;-78
2021/08/31 09:37:29;;;;;;;16.35;7.82;;;19.30;89.20;;;;;;5077571;28;20168;-78
2021/08/31 09:40:15;;;;;;;14.07;7.25;;;19.30;90.50;;;;;;5077317;28;20266;-78
2021/08/31 09:43:05;;;;;;;12.70;7.07;;;19.40;88.10;;;;;;5080853;28;20164;-78
2021/08/31 09:45:37;;;;;;;15.77;8.43;;;19.40;87.80;;;;;;5081112;28;20192;-78
2021/08/31 09:48:05;;;;;;;12.52;7.20;;;19.40;88.30;;;;;;5081342;28;20192;-78
2021/08/31 09:50:38;;;;;;;11.75;6.88;;;19.50;89.60;;;;;;5081183;28;20654;-78
2021/08/31 09:53:16;;;;;;;13.05;7.82;;;19.70;87.70;;;;;;5081536;28;20164;-78
2021/08/31 09:55:44;;;;;;;17.98;9.18;;;19.80;85.80;;;;;;5080904;28;20563;-78
2021/08/31 09:58:14;;;;;;;17.58;8.00;;;19.90;86.70;;;;;;5079482;28;20538;-78
2021/08/31 10:00:43;;;;;;;13.68;6.07;;;20.00;87.10;;;;;;5079023;28;20168;-79
2021/08/31 10:03:09;;;;;;;12.70;6.35;;;20.10;85.60;;;;;;5078669;28;20182;-77
2021/08/31 10:05:35;;;;;;;14.23;6.60;;;20.20;87.30;;;;;;5078477;28;20191;-77
2021/08/31 10:08:02;;;;;;;9.73;6.30;;;20.40;84.50;;;;;;5078702;28;20254;-77
2021/08/31 10:10:30;;;;;;;11.05;6.18;;;20.40;82.70;;;;;;5078507;28;20623;-78
2021/08/31 10:12:57;;;;;;;16.02;7.43;;;20.30;84.10;;;;;;5078416;28;20171;-77
2021/08/31 10:15:24;;;;;;;16.15;6.88;;;20.20;84.50;;;;;;5078175;28;20694;-77
2021/08/31 10:17:51;;;;;;;8.52;5.55;;;20.20;84.10;;;;;;5096269;28;20175;-78
2021/08/31 10:20:27;;;;;;;9.77;5.65;;;20.00;82.70;;;;;;5078501;28;20171;-77
2021/08/31 10:22:54;;;;;;;9.60;5.32;;;20.00;84.50;;;;;;5082639;28;20178;-81
2021/08/31 10:25:21;;;;;;;9.15;5.70;;;20.00;83.00;;;;;;5083691;28;20218;-81
2021/08/31 10:27:47;;;;;;;8.80;5.50;;;20.00;84.90;;;;;;5083735;28;20603;-81
2021/08/31 10:30:13;;;;;;;12.10;6.65;;;19.90;82.10;;;;;;5083252;28;20175;-81
2021/08/31 10:32:40;;;;;;;13.90;6.70;;;19.80;82.60;;;;;;5083836;28;20223;-81
2021/08/31 10:35:07;;;;;;;19.52;6.80;;;19.80;84.10;;;;;;5084502;28;20195;-81
2021/08/31 10:37:47;;;;;;;10.63;6.63;;;19.90;85.20;;;;;;5083893;28;20211;-81
2021/08/31 10:40:44;;;;;;;12.15;6.40;;;19.90;84.10;;;;;;5084020;28;20176;-81
2021/08/31 10:43:15;;;;;;;9.45;6.43;;;20.00;84.60;;;;;;5082976;28;20180;-82
2021/08/31 10:45:44;;;;;;;12.43;6.13;;;20.10;82.80;;;;;;5083886;28;20595;-82
2021/08/31 10:48:25;;;;;;;13.27;6.35;;;20.20;83.70;;;;;;5082568;28;20225;-81
2021/08/31 10:51:17;;;;;;;9.30;6.28;;;20.20;83.40;;;;;;5082232;28;20254;-81
2021/08/31 10:53:48;;;;;;;11.35;6.45;;;20.30;82.30;;;;;;5080638;28;20183;-81
2021/08/31 10:56:23;;;;;;;13.40;5.88;;;20.40;81.40;;;;;;5083473;28;20205;-81
2021/08/31 10:58:52;;;;;;;9.38;5.10;;;20.50;82.10;;;;;;5081384;28;20205;-82
2021/08/31 11:01:23;;;;;;;10.32;5.65;;;20.30;81.00;;;;;;5082376;28;20202;-81
2021/08/31 11:03:50;;;;;;;9.48;5.70;;;20.30;84.80;;;;;;5082663;28;20176;-81
2021/08/31 11:06:28;;;;;;;11.85;6.07;;;20.40;81.70;;;;;;5083453;28;20751;-81
2021/08/31 11:09:06;;;;;;;18.48;6.40;;;20.50;81.90;;;;;;5085098;28;20163;-81
2021/08/31 11:11:31;;;;;;;11.82;5.95;;;20.60;79.80;;;;;;5084228;28;20174;-81
2021/08/31 11:13:59;;;;;;;15.13;7.13;;;20.60;80.30;;;;;;5083564;28;20196;-81
2021/08/31 11:16:26;;;;;;;10.90;6.07;;;20.60;79.40;;;;;;5083658;28;20823;-81
2021/08/31 11:18:52;;;;;;;9.25;4.65;;;20.50;79.40;;;;;;5085361;28;20174;-82
2021/08/31 11:21:18;;;;;;;10.38;5.93;;;20.40;79.80;;;;;;5082907;28;20221;-82
2021/08/31 11:23:44;;;;;;;11.43;5.93;;;20.40;82.00;;;;;;5083621;28;20533;-81
2021/08/31 11:26:24;;;;;;;11.23;5.10;;;20.50;79.50;;;;;;5083307;28;20191;-81
2021/08/31 11:28:51;;;;;;;10.35;5.00;;;20.60;78.70;;;;;;5083474;28;20670;-81
2021/08/31 11:31:25;;;;;;;11.15;6.28;;;20.60;78.10;;;;;;5083878;28;20183;-81
2021/08/31 11:33:55;;;;;;;11.73;6.18;;;20.70;79.40;;;;;;5082559;28;20167;-81
2021/08/31 11:36:25;;;;;;;10.75;5.40;;;20.70;79.10;;;;;;5082774;28;20190;-81
2021/08/31 11:38:54;;;;;;;11.25;5.70;;;20.90;78.00;;;;;;5085139;28;20207;-81
2021/08/31 11:41:28;;;;;;;12.27;5.90;;;20.90;79.40;;;;;;5085171;28;20608;-80
2021/08/31 11:44:03;;;;;;;11.13;5.88;;;21.00;77.60;;;;;;5084983;28;20195;-80
2021/08/31 11:46:34;;;;;;;12.63;6.35;;;21.10;76.90;;;;;;5082114;28;20194;-80
2021/08/31 11:49:18;;;;;;;10.15;5.10;;;21.10;77.80;;;;;;5083128;28;20225;-80
2021/08/31 11:52:02;;;;;;;8.57;4.88;;;21.10;78.40;;;;;;5082200;28;20209;-80
2021/08/31 11:54:31;;;;;;;11.68;5.55;;;21.40;77.70;;;;;;5082527;28;20217;-81
2021/08/31 11:57:03;;;;;;;13.73;6.20;;;21.60;75.50;;;;;;5084905;28;20186;-80
2021/08/31 11:59:35;;;;;;;8.30;4.80;;;21.50;75.90;;;;;;5085245;28;20173;-81
2021/08/31 12:02:20;;;;;;;9.77;6.00;;;21.40;77.10;;;;;;5084872;28;20678;-80
2021/08/31 12:05:04;;;;;;;9.73;5.15;;;21.20;76.00;;;;;;5084417;28;20198;-80
2021/08/31 12:07:41;;;;;;;8.45;5.75;;;21.20;78.70;;;;;;5084151;28;20223;-81
2021/08/31 12:10:09;;;;;;;9.10;5.38;;;21.20;78.00;;;;;;5083783;28;20175;-82
2021/08/31 12:12:37;;;;;;;11.75;6.25;;;21.30;76.90;;;;;;5083090;28;20179;-81
2021/08/31 12:15:04;;;;;;;10.30;5.70;;;21.20;76.20;;;;;;5083751;28;20195;-81
2021/08/31 12:17:45;;;;;;;10.38;5.72;;;21.10;79.20;;;;;;5084377;28;20168;-81
2021/08/31 12:20:24;;;;;;;7.38;5.05;;;21.20;79.60;;;;;;5085905;28;20168;-81
2021/08/31 12:22:51;;;;;;;9.70;5.40;;;21.40;76.40;;;;;;5085494;28;20239;-81
2021/08/31 12:25:19;;;;;;;9.98;5.63;;;21.50;76.70;;;;;;5084125;28;20188;-82
2021/08/31 12:27:54;;;;;;;10.45;5.90;;;21.70;76.20;;;;;;5082140;28;20216;-82
2021/08/31 12:30:35;;;;;;;15.20;6.50;;;22.10;75.90;;;;;;5082279;28;20163;-81
2021/08/31 12:33:01;;;;;;;10.50;5.90;;;22.50;74.90;;;;;;5131263;22;20212;-77
2021/08/31 12:35:39;;;;;;;17.98;6.97;;;22.40;71.60;;;;;;5054900;28;20184;-77
2021/08/31 12:38:23;;;;;;;10.65;6.05;;;22.40;74.40;;;;;;5054721;28;20168;-77